K-storm — V2DV8 — position and weather

sailwx.info

Track history (hours):
 
Tides and Currents Weather Stations Pressure Air Temp Water Temp Dewpoint Dewpoint Depression Visibility Wind Speed Wind Dir Waves Ship Positions

K-storm

Last reported at 2018-Feb-22 09:22 UTC. Time now 2018-Feb-24 20:22 UTC.
Position N 25°25' W 079°40'.

Length 139 m; draft 6.5 m.

Type: Ship. MMSI: 305350000.

Date/timePositionNaut miles runAvg speedWind from/ knotsBaromVisibWave heightAir tempDewpointWater temp
2018-Feb-22 09:22N 25°25' W 079°40'613.9
2018-Feb-22 08:57N 25°31' W 079°41'613.6
2018-Feb-22 08:30N 25°37' W 079°41'713.4
2018-Feb-22 08:01N 25°44' W 079°41'612.6
2018-Feb-22 07:31N 25°50' W 079°42'713.2
2018-Feb-22 07:00N 25°54' W 079°48'613.0
2018-Feb-22 06:30N 25°57' W 079°54'612.3
2018-Feb-22 06:00N 26°01' W 079°60'612.7
2018-Feb-22 05:30N 26°05' W 080°05'2 3.8
2018-Feb-22 05:00N 26°04' W 080°07'0 0.1
2018-Feb-22 04:30N 26°04' W 080°07'0 0.0
2018-Feb-22 03:59N 26°04' W 080°07'0 0.0
2018-Feb-22 03:29N 26°04' W 080°07'0 0.0
2018-Feb-22 02:59N 26°04' W 080°07'0 0.0
2018-Feb-22 02:29N 26°04' W 080°07'0 0.0
2018-Feb-22 01:59N 26°04' W 080°07'0 0.0
2018-Feb-22 01:28N 26°04' W 080°07'0 0.0
2018-Feb-22 00:58N 26°04' W 080°07'0 0.0
2018-Feb-22 00:28N 26°04' W 080°07'0 0.0
2018-Feb-21 23:58N 26°04' W 080°07'0 0.0
2018-Feb-21 23:31N 26°04' W 080°07'0 0.0
2018-Feb-21 23:00N 26°04' W 080°07'0 0.0
2018-Feb-21 22:30N 26°04' W 080°07'0 0.0
2018-Feb-21 21:57N 26°04' W 080°07'0 0.0
2018-Feb-21 21:30N 26°04' W 080°07'0 0.0
2018-Feb-21 20:59N 26°04' W 080°07'0 0.0
2018-Feb-21 20:29N 26°04' W 080°07'0 0.0
2018-Feb-21 19:59N 26°04' W 080°07'0 0.0
2018-Feb-21 19:29N 26°04' W 080°07'0 0.0
2018-Feb-21 18:59N 26°04' W 080°07'0 0.0
2018-Feb-21 18:28N 26°04' W 080°07'0 0.0
2018-Feb-21 17:58N 26°04' W 080°07'0 0.0
2018-Feb-21 17:28N 26°04' W 080°07'0 0.0
2018-Feb-21 16:58N 26°04' W 080°07'0 0.0
2018-Feb-21 16:30N 26°04' W 080°07'0 0.0
2018-Feb-21 16:00N 26°04' W 080°07'0 0.0
2018-Feb-21 15:30N 26°04' W 080°07'0 0.0
2018-Feb-21 15:00N 26°04' W 080°07'0 0.0
2018-Feb-21 14:30N 26°04' W 080°07'0 0.0
2018-Feb-21 13:59N 26°04' W 080°07'0 0.0
2018-Feb-21 13:29N 26°04' W 080°07'0 0.0
2018-Feb-21 12:59N 26°04' W 080°07'0 0.0
2018-Feb-21 12:29N 26°04' W 080°07'0 0.0
2018-Feb-21 11:58N 26°04' W 080°07'0 0.0
2018-Feb-21 11:28N 26°04' W 080°07'0 0.0
2018-Feb-21 10:58N 26°04' W 080°07'0 0.0
2018-Feb-21 10:28N 26°04' W 080°07'0 0.0
2018-Feb-21 09:58N 26°04' W 080°07'0 0.0
2018-Feb-21 09:30N 26°04' W 080°07'0 0.0
2018-Feb-21 09:00N 26°04' W 080°07'0 0.0
2018-Feb-21 08:30N 26°04' W 080°07'0 0.0
2018-Feb-21 08:00N 26°04' W 080°07'0 0.0
2018-Feb-21 07:30N 26°04' W 080°07'1 1.4
2018-Feb-21 07:00N 26°05' W 080°07'4 7.2
2018-Feb-21 06:30N 26°05' W 080°03'3 5.9
2018-Feb-21 06:00N 26°04' W 079°60'4 8.4
2018-Feb-21 05:30N 26°02' W 079°56'1 3.0
2018-Feb-21 05:00N 26°01' W 079°54'1 2.2
2018-Feb-21 04:30N 26°00' W 079°54'5 9.5
2018-Feb-21 04:00N 25°57' W 079°50'5 9.5
2018-Feb-21 03:30N 25°54' W 079°46'5 9.6
2018-Feb-21 03:00N 25°52' W 079°42'611.2
2018-Feb-21 02:30N 25°46' W 079°40'611.5
2018-Feb-21 02:00N 25°40' W 079°40'611.5
2018-Feb-21 01:30N 25°35' W 079°40'612.8
2018-Feb-21 01:00N 25°28' W 079°40'  
2018-Feb-15 09:26N 25°31' W 079°40'614.0
2018-Feb-15 09:00N 25°37' W 079°40'713.9
2018-Feb-15 08:30N 25°44' W 079°41'713.7
2018-Feb-15 08:00N 25°51' W 079°42'713.9
2018-Feb-15 07:30N 25°55' W 079°48'713.9
2018-Feb-15 07:00N 25°59' W 079°54'713.6
2018-Feb-15 06:31N 26°02' W 080°01'611.1
2018-Feb-15 06:00N 26°06' W 080°06'2 3.7
2018-Feb-15 05:29N 26°04' W 080°07'0 0.0
2018-Feb-15 04:58N 26°04' W 080°07'0 0.0
2018-Feb-15 04:28N 26°04' W 080°07'0 0.0
2018-Feb-15 03:58N 26°04' W 080°07'0 0.0
2018-Feb-15 03:28N 26°04' W 080°07'0 0.0
2018-Feb-15 03:00N 26°04' W 080°07'0 0.0
2018-Feb-15 02:30N 26°04' W 080°07'0 0.0
2018-Feb-15 02:00N 26°04' W 080°07'0 0.0
2018-Feb-15 01:30N 26°04' W 080°07'0 0.0
2018-Feb-15 01:00N 26°04' W 080°07'0 0.0
2018-Feb-15 00:29N 26°04' W 080°07'0 0.0
2018-Feb-14 23:59N 26°04' W 080°07'0 0.0
2018-Feb-14 23:29N 26°04' W 080°07'0 0.0
2018-Feb-14 22:59N 26°04' W 080°07'0 0.0
2018-Feb-14 22:29N 26°04' W 080°07'0 0.0
2018-Feb-14 21:58N 26°04' W 080°07'0 0.0
2018-Feb-14 21:28N 26°04' W 080°07'0 0.0
2018-Feb-14 20:58N 26°04' W 080°07'0 0.0
2018-Feb-14 20:28N 26°04' W 080°07'0 0.0
2018-Feb-14 20:00N 26°04' W 080°07'0 0.0
2018-Feb-14 19:30N 26°04' W 080°07'0 0.0
2018-Feb-14 19:00N 26°04' W 080°07'0 0.0
2018-Feb-14 18:30N 26°04' W 080°07'0 0.0
2018-Feb-14 18:00N 26°04' W 080°07'0 0.0
2018-Feb-14 17:29N 26°04' W 080°07'0 0.0
2018-Feb-14 16:59N 26°04' W 080°07'0 0.0
2018-Feb-14 16:29N 26°04' W 080°07'0 0.0
2018-Feb-14 15:59N 26°04' W 080°07'0 0.0
2018-Feb-14 15:25N 26°04' W 080°07'0 0.0
2018-Feb-14 14:58N 26°04' W 080°07'0 0.0
2018-Feb-14 14:28N 26°04' W 080°07'0 0.0
2018-Feb-14 13:58N 26°04' W 080°07'0 0.0
2018-Feb-14 13:28N 26°04' W 080°07'0 0.0
2018-Feb-14 13:00N 26°04' W 080°07'0 0.0
2018-Feb-14 12:30N 26°04' W 080°07'0 0.0
2018-Feb-14 12:00N 26°04' W 080°07'0 0.0
2018-Feb-14 11:30N 26°04' W 080°07'0 0.0
2018-Feb-14 10:59N 26°04' W 080°07'0 0.0
2018-Feb-14 10:29N 26°04' W 080°07'0 0.0
2018-Feb-14 09:59N 26°04' W 080°07'0 0.0
2018-Feb-14 09:29N 26°04' W 080°07'0 0.0
2018-Feb-14 08:59N 26°04' W 080°07'0 0.0
2018-Feb-14 08:28N 26°04' W 080°07'0 0.0
2018-Feb-14 07:58N 26°04' W 080°07'0 0.0
2018-Feb-14 07:30N 26°04' W 080°07'2 3.3
2018-Feb-14 07:00N 26°06' W 080°07'4 8.4
2018-Feb-14 06:31N 26°05' W 080°02'815.0
2018-Feb-14 06:00N 26°01' W 079°55'918.1
2018-Feb-14 05:30N 25°56' W 079°47'917.7
2018-Feb-14 05:00N 25°49' W 079°41'918.8
2018-Feb-14 04:30N 25°39' W 079°40'918.3
2018-Feb-14 04:00N 25°30' W 079°40'  
Track history (hours):
 
Tides and Currents Weather Stations Pressure Air Temp Water Temp Dewpoint Dewpoint Depression Visibility Wind Speed Wind Dir Waves Ship Positions

K-storm

Last reported at 2018-Feb-22 09:22 UTC. Time now 2018-Feb-24 20:22 UTC.
Position N 25°25' W 079°40'.

Length 139 m; draft 6.5 m.

Type: Ship. MMSI: 305350000.

Date/timePositionNaut miles runAvg speedWind from/ knotsBaromVisibWave heightAir tempDewpointWater temp
2018-Feb-22 09:22N 25°25' W 079°40'613.9
2018-Feb-22 08:57N 25°31' W 079°41'613.6
2018-Feb-22 08:30N 25°37' W 079°41'713.4
2018-Feb-22 08:01N 25°44' W 079°41'612.6
2018-Feb-22 07:31N 25°50' W 079°42'713.2
2018-Feb-22 07:00N 25°54' W 079°48'613.0
2018-Feb-22 06:30N 25°57' W 079°54'612.3
2018-Feb-22 06:00N 26°01' W 079°60'612.7
2018-Feb-22 05:30N 26°05' W 080°05'2 3.8
2018-Feb-22 05:00N 26°04' W 080°07'0 0.1
2018-Feb-22 04:30N 26°04' W 080°07'0 0.0
2018-Feb-22 03:59N 26°04' W 080°07'0 0.0
2018-Feb-22 03:29N 26°04' W 080°07'0 0.0
2018-Feb-22 02:59N 26°04' W 080°07'0 0.0
2018-Feb-22 02:29N 26°04' W 080°07'0 0.0
2018-Feb-22 01:59N 26°04' W 080°07'0 0.0
2018-Feb-22 01:28N 26°04' W 080°07'0 0.0
2018-Feb-22 00:58N 26°04' W 080°07'0 0.0
2018-Feb-22 00:28N 26°04' W 080°07'0 0.0
2018-Feb-21 23:58N 26°04' W 080°07'0 0.0
2018-Feb-21 23:31N 26°04' W 080°07'0 0.0
2018-Feb-21 23:00N 26°04' W 080°07'0 0.0
2018-Feb-21 22:30N 26°04' W 080°07'0 0.0
2018-Feb-21 21:57N 26°04' W 080°07'0 0.0
2018-Feb-21 21:30N 26°04' W 080°07'0 0.0
2018-Feb-21 20:59N 26°04' W 080°07'0 0.0
2018-Feb-21 20:29N 26°04' W 080°07'0 0.0
2018-Feb-21 19:59N 26°04' W 080°07'0 0.0
2018-Feb-21 19:29N 26°04' W 080°07'0 0.0
2018-Feb-21 18:59N 26°04' W 080°07'0 0.0
2018-Feb-21 18:28N 26°04' W 080°07'0 0.0
2018-Feb-21 17:58N 26°04' W 080°07'0 0.0
2018-Feb-21 17:28N 26°04' W 080°07'0 0.0
2018-Feb-21 16:58N 26°04' W 080°07'0 0.0
2018-Feb-21 16:30N 26°04' W 080°07'0 0.0
2018-Feb-21 16:00N 26°04' W 080°07'0 0.0
2018-Feb-21 15:30N 26°04' W 080°07'0 0.0
2018-Feb-21 15:00N 26°04' W 080°07'0 0.0
2018-Feb-21 14:30N 26°04' W 080°07'0 0.0
2018-Feb-21 13:59N 26°04' W 080°07'0 0.0
2018-Feb-21 13:29N 26°04' W 080°07'0 0.0
2018-Feb-21 12:59N 26°04' W 080°07'0 0.0
2018-Feb-21 12:29N 26°04' W 080°07'0 0.0
2018-Feb-21 11:58N 26°04' W 080°07'0 0.0
2018-Feb-21 11:28N 26°04' W 080°07'0 0.0
2018-Feb-21 10:58N 26°04' W 080°07'0 0.0
2018-Feb-21 10:28N 26°04' W 080°07'0 0.0
2018-Feb-21 09:58N 26°04' W 080°07'0 0.0
2018-Feb-21 09:30N 26°04' W 080°07'0 0.0
2018-Feb-21 09:00N 26°04' W 080°07'0 0.0
2018-Feb-21 08:30N 26°04' W 080°07'0 0.0
2018-Feb-21 08:00N 26°04' W 080°07'0 0.0
2018-Feb-21 07:30N 26°04' W 080°07'1 1.4
2018-Feb-21 07:00N 26°05' W 080°07'4 7.2
2018-Feb-21 06:30N 26°05' W 080°03'3 5.9
2018-Feb-21 06:00N 26°04' W 079°60'4 8.4
2018-Feb-21 05:30N 26°02' W 079°56'1 3.0
2018-Feb-21 05:00N 26°01' W 079°54'1 2.2
2018-Feb-21 04:30N 26°00' W 079°54'5 9.5
2018-Feb-21 04:00N 25°57' W 079°50'5 9.5
2018-Feb-21 03:30N 25°54' W 079°46'5 9.6
2018-Feb-21 03:00N 25°52' W 079°42'611.2
2018-Feb-21 02:30N 25°46' W 079°40'611.5
2018-Feb-21 02:00N 25°40' W 079°40'611.5
2018-Feb-21 01:30N 25°35' W 079°40'612.8
2018-Feb-21 01:00N 25°28' W 079°40'  
2018-Feb-15 09:26N 25°31' W 079°40'614.0
2018-Feb-15 09:00N 25°37' W 079°40'713.9
2018-Feb-15 08:30N 25°44' W 079°41'713.7
2018-Feb-15 08:00N 25°51' W 079°42'713.9
2018-Feb-15 07:30N 25°55' W 079°48'713.9
2018-Feb-15 07:00N 25°59' W 079°54'713.6
2018-Feb-15 06:31N 26°02' W 080°01'611.1
2018-Feb-15 06:00N 26°06' W 080°06'2 3.7
2018-Feb-15 05:29N 26°04' W 080°07'0 0.0
2018-Feb-15 04:58N 26°04' W 080°07'0 0.0
2018-Feb-15 04:28N 26°04' W 080°07'0 0.0
2018-Feb-15 03:58N 26°04' W 080°07'0 0.0
2018-Feb-15 03:28N 26°04' W 080°07'0 0.0
2018-Feb-15 03:00N 26°04' W 080°07'0 0.0
2018-Feb-15 02:30N 26°04' W 080°07'0 0.0
2018-Feb-15 02:00N 26°04' W 080°07'0 0.0
2018-Feb-15 01:30N 26°04' W 080°07'0 0.0
2018-Feb-15 01:00N 26°04' W 080°07'0 0.0
2018-Feb-15 00:29N 26°04' W 080°07'0 0.0
2018-Feb-14 23:59N 26°04' W 080°07'0 0.0
2018-Feb-14 23:29N 26°04' W 080°07'0 0.0
2018-Feb-14 22:59N 26°04' W 080°07'0 0.0
2018-Feb-14 22:29N 26°04' W 080°07'0 0.0
2018-Feb-14 21:58N 26°04' W 080°07'0 0.0
2018-Feb-14 21:28N 26°04' W 080°07'0 0.0
2018-Feb-14 20:58N 26°04' W 080°07'0 0.0
2018-Feb-14 20:28N 26°04' W 080°07'0 0.0
2018-Feb-14 20:00N 26°04' W 080°07'0 0.0
2018-Feb-14 19:30N 26°04' W 080°07'0 0.0
2018-Feb-14 19:00N 26°04' W 080°07'0 0.0
2018-Feb-14 18:30N 26°04' W 080°07'0 0.0
2018-Feb-14 18:00N 26°04' W 080°07'0 0.0
2018-Feb-14 17:29N 26°04' W 080°07'0 0.0
2018-Feb-14 16:59N 26°04' W 080°07'0 0.0
2018-Feb-14 16:29N 26°04' W 080°07'0 0.0
2018-Feb-14 15:59N 26°04' W 080°07'0 0.0
2018-Feb-14 15:25N 26°04' W 080°07'0 0.0
2018-Feb-14 14:58N 26°04' W 080°07'0 0.0
2018-Feb-14 14:28N 26°04' W 080°07'0 0.0
2018-Feb-14 13:58N 26°04' W 080°07'0 0.0
2018-Feb-14 13:28N 26°04' W 080°07'0 0.0
2018-Feb-14 13:00N 26°04' W 080°07'0 0.0
2018-Feb-14 12:30N 26°04' W 080°07'0 0.0
2018-Feb-14 12:00N 26°04' W 080°07'0 0.0
2018-Feb-14 11:30N 26°04' W 080°07'0 0.0
2018-Feb-14 10:59N 26°04' W 080°07'0 0.0
2018-Feb-14 10:29N 26°04' W 080°07'0 0.0
2018-Feb-14 09:59N 26°04' W 080°07'0 0.0
2018-Feb-14 09:29N 26°04' W 080°07'0 0.0
2018-Feb-14 08:59N 26°04' W 080°07'0 0.0
2018-Feb-14 08:28N 26°04' W 080°07'0 0.0
2018-Feb-14 07:58N 26°04' W 080°07'0 0.0
2018-Feb-14 07:30N 26°04' W 080°07'2 3.3
2018-Feb-14 07:00N 26°06' W 080°07'4 8.4
2018-Feb-14 06:31N 26°05' W 080°02'815.0
2018-Feb-14 06:00N 26°01' W 079°55'918.1
2018-Feb-14 05:30N 25°56' W 079°47'917.7
2018-Feb-14 05:00N 25°49' W 079°41'918.8
2018-Feb-14 04:30N 25°39' W 079°40'918.3
2018-Feb-14 04:00N 25°30' W 079°40'  

Dump ship's entire track history